createdAt,value
2023-01-07T00:00:06.211Z,3.47
2023-01-07T00:02:56.578Z,4.87
2023-01-07T00:05:43.071Z,3.93
2023-01-07T00:08:30.737Z,3.00
2023-01-07T00:11:18.993Z,4.20
2023-01-07T00:14:06.188Z,3.53
2023-01-07T00:16:52.556Z,5.40
2023-01-07T00:19:40.230Z,2.83
2023-01-07T00:22:26.872Z,3.97
2023-01-07T00:25:13.246Z,6.50
2023-01-07T00:27:59.732Z,3.43
2023-01-07T00:30:46.186Z,3.70
2023-01-07T00:33:35.131Z,8.50
2023-01-07T00:36:23.477Z,5.67
2023-01-07T00:39:13.070Z,5.13
2023-01-07T00:42:16.551Z,5.67
2023-01-07T00:45:02.581Z,4.00
2023-01-07T00:47:48.916Z,4.37
2023-01-07T00:50:36.221Z,4.37
2023-01-07T00:53:25.165Z,4.93
2023-01-07T00:56:11.560Z,4.43
2023-01-07T00:59:00.353Z,4.20
2023-01-07T01:01:46.896Z,6.03
2023-01-07T01:04:33.374Z,4.60
2023-01-07T01:07:19.605Z,5.17
2023-01-07T01:10:08.707Z,4.87
2023-01-07T01:12:55.277Z,7.40
2023-01-07T01:15:42.923Z,4.80
2023-01-07T01:18:30.517Z,20.93
2023-01-07T01:21:17.350Z,28.77
2023-01-07T01:24:03.530Z,30.80
2023-01-07T01:26:51.335Z,28.63
2023-01-07T01:29:37.831Z,54.20
2023-01-07T01:32:24.411Z,12.83
2023-01-07T01:35:10.777Z,9.33
2023-01-07T01:37:57.066Z,6.00
2023-01-07T01:40:43.420Z,6.60
2023-01-07T01:43:32.395Z,3.77
2023-01-07T01:46:21.218Z,3.33
2023-01-07T01:49:15.783Z,9.20
2023-01-07T01:52:04.138Z,6.27
2023-01-07T01:54:54.002Z,3.90
2023-01-07T01:57:41.114Z,6.93
2023-01-07T02:00:29.334Z,8.07
2023-01-07T02:03:17.688Z,11.73
2023-01-07T02:06:04.654Z,4.63
2023-01-07T02:08:54.298Z,5.43
2023-01-07T02:11:44.870Z,5.27
2023-01-07T02:14:42.303Z,9.03
2023-01-07T02:17:38.732Z,5.47
2023-01-07T02:20:32.623Z,5.77
2023-01-07T02:23:35.043Z,6.33
2023-01-07T02:26:41.623Z,8.30
2023-01-07T02:29:45.871Z,5.47
2023-01-07T02:32:56.260Z,4.67
2023-01-07T02:35:48.765Z,4.43
2023-01-07T02:38:38.369Z,4.33
2023-01-07T02:41:29.148Z,4.90
2023-01-07T02:44:17.885Z,7.23
2023-01-07T02:47:07.613Z,6.37
2023-01-07T02:49:53.816Z,4.70
2023-01-07T02:52:41.600Z,5.23
2023-01-07T02:55:32.447Z,4.83
2023-01-07T02:58:26.933Z,4.67
2023-01-07T03:01:28.172Z,8.50
2023-01-07T03:04:23.112Z,6.77
2023-01-07T03:07:16.642Z,7.83
2023-01-07T03:10:07.116Z,7.43
2023-01-07T03:12:56.010Z,4.37
2023-01-07T03:15:44.535Z,6.03
2023-01-07T03:18:32.310Z,6.97
2023-01-07T03:21:20.164Z,6.43
2023-01-07T03:24:07.669Z,6.23
2023-01-07T03:26:57.232Z,4.53
2023-01-07T03:29:43.518Z,8.00
2023-01-07T03:32:31.480Z,5.50
2023-01-07T03:35:18.334Z,6.60
2023-01-07T03:38:05.696Z,5.97
2023-01-07T03:40:52.695Z,6.93
2023-01-07T03:43:39.239Z,3.93
2023-01-07T03:46:25.809Z,4.70
2023-01-07T03:49:12.400Z,2.87
2023-01-07T03:51:58.689Z,5.67
2023-01-07T03:54:45.143Z,5.20
2023-01-07T03:57:31.948Z,5.23
2023-01-07T04:00:20.087Z,5.67
2023-01-07T04:03:06.639Z,5.57
2023-01-07T04:05:52.754Z,3.37
2023-01-07T04:08:38.825Z,6.83
2023-01-07T04:11:25.203Z,4.90
2023-01-07T04:14:11.530Z,5.60
2023-01-07T04:16:58.965Z,6.20
2023-01-07T04:19:45.563Z,5.27
2023-01-07T04:22:32.106Z,4.10
2023-01-07T04:25:18.409Z,3.20
2023-01-07T04:28:04.772Z,3.17
2023-01-07T04:30:51.209Z,3.03
2023-01-07T04:33:38.808Z,3.97
2023-01-07T04:36:25.207Z,6.83
2023-01-07T04:39:12.574Z,7.07
2023-01-07T04:41:58.600Z,4.47
2023-01-07T04:44:44.807Z,3.40
2023-01-07T04:47:31.531Z,7.17
2023-01-07T04:50:19.465Z,7.57
2023-01-07T04:53:05.765Z,3.43
2023-01-07T04:55:52.045Z,4.50
2023-01-07T04:58:38.820Z,6.60
2023-01-07T05:01:25.826Z,4.17
2023-01-07T05:04:12.441Z,4.57
2023-01-07T05:07:00.214Z,4.23
2023-01-07T05:09:46.523Z,5.97
2023-01-07T05:12:34.617Z,3.50
2023-01-07T05:15:20.975Z,5.63
2023-01-07T05:18:07.363Z,3.27
2023-01-07T05:20:53.845Z,5.27
2023-01-07T05:23:41.343Z,9.97
2023-01-07T05:26:27.786Z,8.37
2023-01-07T05:29:14.389Z,12.87
2023-01-07T05:32:02.159Z,7.67
2023-01-07T05:34:48.281Z,5.03
2023-01-07T05:37:34.735Z,7.57
2023-01-07T05:40:22.359Z,7.40
2023-01-07T05:43:08.793Z,8.50
2023-01-07T05:45:56.190Z,4.20
2023-01-07T05:48:42.817Z,3.43
2023-01-07T05:51:29.436Z,10.57
2023-01-07T05:54:15.673Z,6.20
2023-01-07T05:57:03.315Z,10.23
2023-01-07T05:59:49.479Z,4.20
2023-01-07T06:02:35.613Z,7.77
2023-01-07T06:05:22.450Z,4.87
2023-01-07T06:08:08.589Z,5.53
2023-01-07T06:10:54.834Z,6.13
2023-01-07T06:13:42.793Z,7.57
2023-01-07T06:16:29.141Z,5.67
2023-01-07T06:19:15.461Z,8.47
2023-01-07T06:22:01.715Z,9.20
2023-01-07T06:24:47.801Z,6.37
2023-01-07T06:27:34.790Z,8.30
2023-01-07T06:30:22.960Z,8.67
2023-01-07T06:33:09.108Z,7.47
2023-01-07T06:35:55.687Z,8.63
2023-01-07T06:38:42.713Z,9.73
2023-01-07T06:41:29.142Z,7.27
2023-01-07T06:44:15.504Z,4.30
2023-01-07T06:47:03.052Z,5.60
2023-01-07T06:49:49.606Z,8.17
2023-01-07T06:52:35.913Z,8.90
2023-01-07T06:55:22.305Z,7.47
2023-01-07T06:58:08.725Z,9.00
2023-01-07T07:00:55.147Z,7.80
2023-01-07T07:03:43.201Z,9.03
2023-01-07T07:06:29.599Z,8.00
2023-01-07T07:09:16.094Z,8.17
2023-01-07T07:12:02.185Z,8.90
2023-01-07T07:14:48.598Z,7.47
2023-01-07T07:17:34.768Z,7.67
2023-01-07T07:20:22.725Z,13.00
2023-01-07T07:23:09.028Z,9.17
2023-01-07T07:25:55.212Z,9.77
2023-01-07T07:28:42.875Z,13.40
2023-01-07T07:31:29.375Z,7.03
2023-01-07T07:34:15.819Z,11.80
2023-01-07T07:37:03.719Z,12.70
2023-01-07T07:39:50.157Z,16.40
2023-01-07T07:43:11.424Z,8.17
2023-01-07T07:45:44.653Z,9.87
2023-01-07T07:48:30.826Z,11.77
2023-01-07T07:51:17.259Z,11.37
2023-01-07T07:54:04.766Z,10.90
2023-01-07T07:56:51.213Z,7.90
2023-01-07T07:59:37.440Z,8.93
2023-01-07T08:02:23.802Z,8.30
2023-01-07T08:05:11.508Z,6.90
2023-01-07T08:07:58.446Z,7.53
2023-01-07T08:10:46.305Z,6.73
2023-01-07T08:13:32.807Z,13.30
2023-01-07T08:16:18.994Z,8.57
2023-01-07T08:19:05.996Z,5.67
2023-01-07T08:21:52.715Z,5.60
2023-01-07T08:24:38.767Z,5.67
2023-01-07T08:27:27.807Z,6.73
2023-01-07T08:30:14.446Z,5.40
2023-01-07T08:33:01.011Z,5.17
2023-01-07T08:35:47.150Z,6.50
2023-01-07T08:38:33.367Z,6.13
2023-01-07T08:41:19.667Z,7.70
2023-01-07T08:44:07.891Z,5.67
2023-01-07T08:46:54.541Z,4.57
2023-01-07T08:49:41.256Z,4.80
2023-01-07T08:52:28.322Z,6.57
2023-01-07T08:55:14.582Z,4.47
2023-01-07T08:58:01.197Z,6.03
2023-01-07T09:00:48.793Z,10.87
2023-01-07T09:03:35.182Z,13.07
2023-01-07T09:06:23.033Z,5.27
2023-01-07T09:09:09.359Z,6.17
2023-01-07T09:11:55.431Z,7.13
2023-01-07T09:14:41.975Z,6.37
2023-01-07T09:17:29.591Z,5.53
2023-01-07T09:20:15.903Z,6.53
2023-01-07T09:23:02.160Z,8.63
2023-01-07T09:25:48.460Z,5.40
2023-01-07T09:28:34.628Z,4.93
2023-01-07T09:31:24.241Z,6.63
2023-01-07T09:34:12.478Z,5.37
2023-01-07T09:36:58.724Z,6.33
2023-01-07T09:39:45.372Z,7.67
2023-01-07T09:42:38.048Z,7.33
2023-01-07T09:45:26.323Z,7.33
2023-01-07T09:48:19.136Z,11.07
2023-01-07T09:51:09.253Z,7.17
2023-01-07T09:53:56.500Z,10.57
2023-01-07T09:56:42.993Z,5.73
2023-01-07T09:59:29.377Z,9.07
2023-01-07T10:02:21.143Z,5.40
2023-01-07T10:05:15.901Z,4.20
2023-01-07T10:08:30.261Z,2.90
2023-01-07T10:11:19.332Z,5.97
2023-01-07T10:14:21.471Z,5.13
2023-01-07T10:17:12.036Z,4.00
2023-01-07T10:20:00.231Z,2.17
2023-01-07T10:22:50.004Z,5.13
2023-01-07T10:25:42.267Z,2.50
2023-01-07T10:28:31.446Z,2.20
2023-01-07T10:31:19.336Z,4.63
2023-01-07T10:34:10.683Z,3.37
2023-01-07T10:37:01.487Z,2.90
2023-01-07T10:39:52.590Z,5.10
2023-01-07T10:42:42.335Z,6.10
2023-01-07T10:45:34.740Z,2.47
2023-01-07T10:48:30.866Z,3.17
2023-01-07T10:51:24.540Z,3.67
2023-01-07T10:54:15.129Z,1.77
2023-01-07T10:57:04.273Z,2.03
2023-01-07T10:59:53.083Z,1.87
2023-01-07T11:02:39.926Z,2.00
2023-01-07T11:05:27.218Z,1.33
2023-01-07T11:08:17.113Z,2.10
2023-01-07T11:11:04.696Z,1.70
2023-01-07T11:13:55.750Z,2.00
2023-01-07T11:16:45.757Z,2.83
2023-01-07T11:19:42.888Z,3.30
2023-01-07T11:22:31.451Z,2.20
2023-01-07T11:25:28.551Z,2.67
2023-01-07T11:28:19.123Z,2.13
2023-01-07T11:31:05.621Z,2.10
2023-01-07T11:34:02.034Z,1.60
2023-01-07T11:36:49.804Z,1.93
2023-01-07T11:39:36.874Z,2.43
2023-01-07T11:42:41.637Z,2.03
2023-01-07T11:45:28.986Z,2.23
2023-01-07T11:48:18.315Z,2.73
2023-01-07T11:51:06.926Z,3.10
2023-01-07T11:53:54.018Z,1.90
2023-01-07T11:56:40.569Z,2.37
2023-01-07T11:59:28.755Z,3.23
2023-01-07T12:02:25.720Z,3.00
2023-01-07T12:05:19.475Z,2.00
2023-01-07T12:08:08.150Z,3.10
2023-01-07T12:10:58.195Z,2.77
2023-01-07T12:13:49.043Z,2.80
2023-01-07T12:16:36.426Z,4.80
2023-01-07T12:19:31.632Z,1.37
2023-01-07T12:22:22.510Z,2.33
2023-01-07T12:25:23.498Z,1.50
2023-01-07T12:28:13.053Z,1.97
2023-01-07T12:31:10.752Z,2.27
2023-01-07T12:34:04.498Z,1.63
2023-01-07T12:36:53.829Z,2.40
2023-01-07T12:39:42.155Z,2.33
2023-01-07T12:42:33.021Z,1.53
2023-01-07T12:45:22.179Z,2.90
2023-01-07T12:48:12.474Z,3.37
2023-01-07T12:50:59.832Z,4.10
2023-01-07T12:53:50.056Z,2.07
2023-01-07T12:56:38.954Z,2.20
2023-01-07T12:59:45.701Z,2.60
2023-01-07T13:02:37.480Z,5.50
2023-01-07T13:05:26.317Z,3.20
2023-01-07T13:08:16.547Z,3.00
2023-01-07T13:11:05.702Z,3.90
2023-01-07T13:13:53.108Z,2.80
2023-01-07T13:16:40.614Z,1.50
2023-01-07T13:19:27.051Z,1.33
2023-01-07T13:22:16.723Z,2.10
2023-01-07T13:25:12.654Z,2.17
2023-01-07T13:28:17.682Z,4.23
2023-01-07T13:31:12.196Z,2.53
2023-01-07T13:34:05.640Z,2.40
2023-01-07T13:36:58.457Z,1.70
2023-01-07T13:40:08.130Z,3.73
2023-01-07T13:42:56.119Z,2.27
2023-01-07T13:45:42.631Z,1.97
2023-01-07T13:48:29.446Z,3.43
2023-01-07T13:51:17.846Z,1.50
2023-01-07T13:54:05.053Z,2.30
2023-01-07T13:56:52.757Z,2.63
2023-01-07T13:59:48.647Z,3.43
2023-01-07T14:02:49.920Z,2.67
2023-01-07T14:05:36.755Z,1.40
2023-01-07T14:08:29.564Z,1.87
2023-01-07T14:11:16.722Z,1.97
2023-01-07T14:14:07.017Z,1.63
2023-01-07T14:16:56.513Z,1.47
2023-01-07T14:19:46.851Z,1.40
2023-01-07T14:22:38.106Z,1.83
2023-01-07T14:25:41.487Z,1.63
2023-01-07T14:28:47.183Z,2.20
2023-01-07T14:31:34.318Z,2.40
2023-01-07T14:34:23.583Z,1.67
2023-01-07T14:37:17.090Z,1.67
2023-01-07T14:40:29.239Z,2.40
2023-01-07T14:43:34.225Z,2.23
2023-01-07T14:46:47.781Z,6.30
2023-01-07T14:49:51.661Z,5.70
2023-01-07T14:53:05.807Z,5.80
2023-01-07T14:56:01.141Z,6.10
2023-01-07T14:59:08.025Z,5.97
2023-01-07T15:02:09.834Z,5.83
2023-01-07T15:05:04.159Z,15.30
2023-01-07T15:08:13.129Z,9.23
2023-01-07T15:11:17.748Z,9.57
2023-01-07T15:14:23.312Z,19.93
2023-01-07T15:17:10.624Z,13.67
2023-01-07T15:19:57.807Z,14.27
2023-01-07T15:22:53.285Z,22.70
2023-01-07T15:25:44.483Z,21.20
2023-01-07T15:28:36.740Z,20.70
2023-01-07T15:31:25.755Z,15.47
2023-01-07T15:34:13.037Z,17.50
2023-01-07T15:36:59.352Z,17.93
2023-01-07T15:39:49.733Z,14.40
2023-01-07T15:42:36.167Z,24.10
2023-01-07T15:45:24.611Z,27.17
2023-01-07T15:48:13.115Z,39.47
2023-01-07T15:51:00.127Z,103.40
2023-01-07T15:53:46.973Z,41.17
2023-01-07T15:56:35.559Z,31.97
2023-01-07T15:59:24.636Z,34.13
2023-01-07T16:02:21.967Z,18.70
2023-01-07T16:05:08.950Z,14.00
2023-01-07T16:07:56.055Z,13.77
2023-01-07T16:10:42.154Z,21.80
2023-01-07T16:13:30.250Z,21.60
2023-01-07T16:16:17.107Z,29.07
2023-01-07T16:19:04.250Z,17.57
2023-01-07T16:21:51.730Z,17.73
2023-01-07T16:24:38.116Z,11.73
2023-01-07T16:27:29.263Z,11.43
2023-01-07T16:30:17.259Z,13.57
2023-01-07T16:33:05.771Z,21.40
2023-01-07T16:35:53.443Z,26.40
2023-01-07T16:38:39.890Z,33.10
2023-01-07T16:41:26.943Z,30.60
2023-01-07T16:44:39.106Z,30.97
2023-01-07T16:47:27.848Z,53.13
2023-01-07T16:50:30.036Z,47.53
2023-01-07T16:53:27.170Z,48.87
2023-01-07T16:56:17.176Z,34.53
2023-01-07T16:59:03.805Z,37.83
2023-01-07T17:01:50.108Z,25.73
2023-01-07T17:04:37.798Z,30.73
2023-01-07T17:07:25.712Z,19.17
2023-01-07T17:10:19.758Z,24.23
2023-01-07T17:13:07.250Z,13.47
2023-01-07T17:16:14.001Z,15.83
2023-01-07T17:19:21.517Z,28.83
2023-01-07T17:22:28.259Z,36.07
2023-01-07T17:25:15.658Z,26.80
2023-01-07T17:28:07.817Z,16.20
2023-01-07T17:30:54.528Z,30.73
2023-01-07T17:33:41.696Z,18.07
2023-01-07T17:36:28.485Z,20.40
2023-01-07T17:39:16.285Z,23.10
2023-01-07T17:42:20.088Z,29.47
2023-01-07T17:45:07.190Z,23.63
2023-01-07T17:47:53.979Z,32.53
2023-01-07T17:50:41.339Z,18.00
2023-01-07T17:53:29.038Z,17.47
2023-01-07T17:56:17.176Z,12.57
2023-01-07T17:59:04.023Z,10.23
2023-01-07T18:01:51.942Z,7.20
2023-01-07T18:04:38.781Z,10.00
2023-01-07T18:07:25.190Z,6.17
2023-01-07T18:10:13.107Z,6.70
2023-01-07T18:12:59.718Z,8.70
2023-01-07T18:15:46.165Z,8.10
2023-01-07T18:18:32.623Z,11.20
2023-01-07T18:21:18.926Z,9.00
2023-01-07T18:24:05.200Z,11.83
2023-01-07T18:26:51.381Z,7.90
2023-01-07T18:29:39.595Z,16.03
2023-01-07T18:32:26.094Z,12.13
2023-01-07T18:35:12.777Z,14.47
2023-01-07T18:37:59.520Z,11.10
2023-01-07T18:40:46.051Z,15.97
2023-01-07T18:43:32.186Z,17.33
2023-01-07T18:46:19.927Z,13.97
2023-01-07T18:49:06.218Z,19.43
2023-01-07T18:51:52.482Z,17.10
2023-01-07T18:54:41.348Z,26.73
2023-01-07T18:57:28.150Z,19.73
2023-01-07T19:00:15.419Z,19.83
2023-01-07T19:03:03.818Z,18.40
2023-01-07T19:05:50.364Z,21.23
2023-01-07T19:08:39.759Z,21.17
2023-01-07T19:11:27.409Z,13.57
2023-01-07T19:14:15.922Z,21.20
2023-01-07T19:17:02.322Z,24.87
2023-01-07T19:19:51.600Z,19.97
2023-01-07T19:22:37.733Z,14.67
2023-01-07T19:25:24.565Z,15.00
2023-01-07T19:28:11.127Z,15.33
2023-01-07T19:30:57.362Z,15.67
2023-01-07T19:33:43.503Z,14.13
2023-01-07T19:36:31.366Z,9.40
2023-01-07T19:39:18.451Z,3.37
2023-01-07T19:42:05.037Z,6.07
2023-01-07T19:44:51.346Z,6.40
2023-01-07T19:47:39.459Z,7.30
2023-01-07T19:50:25.697Z,5.20
2023-01-07T19:53:13.712Z,9.20
2023-01-07T19:56:00.484Z,6.50
2023-01-07T19:58:46.918Z,3.37
2023-01-07T20:01:33.255Z,2.17
2023-01-07T20:04:19.561Z,6.13
2023-01-07T20:07:05.722Z,10.83
2023-01-07T20:09:53.916Z,6.43
2023-01-07T20:12:40.587Z,9.50
2023-01-07T20:15:27.153Z,8.10
2023-01-07T20:18:15.950Z,12.33
2023-01-07T20:21:02.280Z,24.63
2023-01-07T20:23:48.742Z,20.87
2023-01-07T20:26:38.261Z,15.07
2023-01-07T20:29:24.979Z,20.03
2023-01-07T20:32:11.383Z,11.40
2023-01-07T20:34:57.761Z,14.40
2023-01-07T20:37:44.429Z,13.53
2023-01-07T20:40:31.087Z,17.97
2023-01-07T20:43:19.669Z,10.23
2023-01-07T20:46:09.627Z,11.60
2023-01-07T20:48:56.830Z,10.23
2023-01-07T20:51:45.967Z,12.87
2023-01-07T20:54:32.591Z,10.07
2023-01-07T20:57:19.082Z,15.10
2023-01-07T21:00:07.846Z,10.83
2023-01-07T21:02:54.346Z,12.80
2023-01-07T21:05:41.030Z,6.93
2023-01-07T21:08:27.276Z,8.47
2023-01-07T21:11:14.086Z,14.40
2023-01-07T21:14:00.262Z,9.23
2023-01-07T21:16:47.922Z,4.30
2023-01-07T21:19:35.301Z,4.23
2023-01-07T21:22:21.469Z,5.73
2023-01-07T21:25:10.230Z,10.93
2023-01-07T21:27:56.967Z,5.53
2023-01-07T21:30:45.109Z,9.30
2023-01-07T21:33:32.838Z,3.90
2023-01-07T21:36:19.898Z,7.87
2023-01-07T21:39:06.031Z,6.53
2023-01-07T21:41:52.831Z,7.67
2023-01-07T21:44:39.126Z,6.07
2023-01-07T21:47:25.571Z,7.77
2023-01-07T21:50:15.004Z,8.80
2023-01-07T21:53:01.871Z,10.77
2023-01-07T21:55:48.634Z,7.60
2023-01-07T21:58:35.544Z,8.97
2023-01-07T22:01:23.454Z,7.50
2023-01-07T22:04:10.457Z,6.33
2023-01-07T22:06:58.038Z,12.73
2023-01-07T22:09:44.527Z,10.67
2023-01-07T22:12:30.853Z,10.23
2023-01-07T22:15:17.061Z,5.53
2023-01-07T22:18:03.297Z,7.97
2023-01-07T22:20:53.671Z,6.33
2023-01-07T22:23:41.377Z,9.43
2023-01-07T22:26:27.796Z,8.23
2023-01-07T22:29:14.760Z,9.70
2023-01-07T22:32:00.968Z,6.73
2023-01-07T22:34:47.057Z,8.63
2023-01-07T22:37:33.130Z,10.17
2023-01-07T22:40:21.207Z,11.27
2023-01-07T22:43:09.504Z,5.57
2023-01-07T22:45:57.233Z,9.10
2023-01-07T22:48:44.499Z,8.30
2023-01-07T22:51:32.584Z,10.13
2023-01-07T22:54:19.250Z,5.53
2023-01-07T22:57:07.676Z,6.73
2023-01-07T22:59:54.447Z,15.93
2023-01-07T23:02:40.676Z,8.70
2023-01-07T23:05:26.853Z,10.60
2023-01-07T23:08:13.414Z,14.70
2023-01-07T23:10:59.709Z,11.30
2023-01-07T23:13:47.603Z,6.73
2023-01-07T23:16:36.334Z,5.87
2023-01-07T23:19:22.856Z,7.50
2023-01-07T23:22:08.947Z,11.80
2023-01-07T23:24:55.105Z,5.20
2023-01-07T23:27:41.494Z,8.87
2023-01-07T23:30:29.411Z,8.67
2023-01-07T23:33:18.239Z,6.37
2023-01-07T23:36:04.936Z,5.80
2023-01-07T23:38:51.100Z,9.57
2023-01-07T23:41:37.298Z,4.07
2023-01-07T23:44:23.498Z,5.73
2023-01-07T23:47:10.952Z,3.77
2023-01-07T23:49:57.351Z,7.60
2023-01-07T23:52:43.780Z,6.60
2023-01-07T23:55:30.357Z,14.93
2023-01-07T23:58:16.733Z,14.97
